METAR Data
IDs: Format: Raw Decoded Include TAF

Data at: 1348 UTC 13 Dec 2019

KBVX 131256Z AUTO 15003KT 10SM OVC070 04/02 A3001 RMK AO2 SLP164 T00440022
KBVX 131156Z AUTO 11003KT 10SM BKN070 04/02 A3000 RMK AO2 SLP162 T00390017 10056 20028 56019
KBVX 131056Z AUTO 11005KT 10SM BKN041 04/02 A3001 RMK AO2 PRESFR SLP163 T00390017
KBVX 130956Z AUTO 31004KT 10SM CLR 04/01 A3004 RMK AO2 SLP175 T00390011
KBVX 130856Z AUTO 00000KT 10SM CLR 04/01 A3006 RMK AO2 SLP180 T00440006 56017
KBVX 130756Z AUTO 16005KT 10SM SCT095 04/01 A3007 RMK AO2 SLP184 T00440006
KBVX 130656Z AUTO 18004KT 10SM OVC090 06/01 A3009 RMK AO2 SLP191 T00560006
KBVX 130556Z AUTO 19005KT 10SM OVC095 06/01 A3011 RMK AO2 SLP197 T00560006 10067 20039 401171006 56012
KBVX 130456Z AUTO 19003KT 10SM CLR 05/00 A3012 RMK AO2 SLP200 T00500000
KBVX 130356Z AUTO 19004KT 10SM CLR 05/00 A3013 RMK AO2 SLP205 T00500000
KBVX 130256Z AUTO 17005KT 10SM CLR 05/00 A3014 RMK AO2 SLP211 T00500000 58006
KBVX 130156Z AUTO 11005KT 10SM CLR 04/00 A3015 RMK AO2 SLP215 T00390000
KBVX 130056Z AUTO 00000KT 10SM CLR 05/M01 A3017 RMK AO2 SLP220 T00501006
KBVX 122356Z AUTO 13004KT 10SM CLR 07/M02 A3016 RMK AO2 SLP216 T00671017 10117 20061 56010
KBVX 122256Z AUTO 15006KT 10SM CLR 09/M03 A3016 RMK AO2 SLP218 T00891028
KBVX 122156Z AUTO 18004KT 10SM CLR 11/M04 A3018 RMK AO2 SLP223 T01061039
KBVX 122056Z AUTO 16007KT 10SM CLR 11/M04 A3019 RMK AO2 SLP226 T01111039 56042
KBVX 121956Z AUTO VRB03KT 10SM CLR 11/M04 A3022 RMK AO2 SLP237 T01111039
KBVX 121856Z AUTO VRB04KT 10SM CLR 11/M04 A3027 RMK AO2 SLP252 T01111039
KBVX 121656Z AUTO 14007KT 10SM CLR 09/M03 A3037 RMK AO2 SLP288 T00941033
KBVX 121556Z AUTO 16007KT 10SM CLR 08/M02 A3040 RMK AO2 SLP299 T00781017
KBVX 121456Z AUTO 14004KT 10SM CLR 05/M01 A3041 RMK AO2 SLP301 T00501011 56005
KBVX 121356Z AUTO 07005KT 10SM CLR 02/M02 A3041 RMK AO2 SLP302 T00221017 FZRANO
KBVX 121256Z AUTO 09003KT 10SM CLR 00/M03 A3041 RMK AO2 SLP303 T00001028 FZRANO
KBVX 121156Z AUTO 09003KT 10SM CLR 01/M03 A3043 RMK AO2 SLP308 T00111028 10039 20011 56004 FZRANO
KBVX 121056Z AUTO 08004KT 10SM CLR 02/M03 A3043 RMK AO2 SLP309 T00171028 FZRANO
KBVX 120956Z AUTO 09004KT 10SM CLR 02/M03 A3042 RMK AO2 SLP304 T00171028 FZRANO
KBVX 120856Z AUTO 13003KT 10SM CLR 03/M03 A3044 RMK AO2 SLP310 T00281033 58009
KBVX 120756Z AUTO 00000KT 10SM CLR 03/M03 A3046 RMK AO2 SLP316 T00281033
KBVX 120656Z AUTO 00000KT 10SM CLR 03/M03 A3047 RMK AO2 SLP319 T00331033
KBVX 120556Z AUTO 16004KT 10SM CLR 03/M03 A3047 RMK AO2 SLP320 T00331033 10072 20033 401221050 56004
KBVX 120456Z AUTO 17004KT 10SM CLR 04/M03 A3047 RMK AO2 SLP321 T00441033
KBVX 120356Z AUTO 18004KT 10SM CLR 04/M03 A3047 RMK AO2 SLP322 T00441033
KBVX 120256Z AUTO 00000KT 10SM CLR 05/M03 A3048 RMK AO2 SLP324 T00501033 51004
KBVX 120156Z AUTO 16005KT 10SM CLR 06/M03 A3047 RMK AO2 SLP323 T00561033